Time,TemperatureF,DewpointF,PressureIn,WindDirection,WindDirectionDegrees,WindSpeedMPH,WindSpeedGustMPH,Humidity,HourlyPrecipIn,Conditions,Clouds,dailyrainin,SoftwareType,DateUTC
2013-03-10 00:00:00,40.3,34.6,29.99,ENE,75,1.0,4.0,80,0.00,,---,0.00,VWS V14.01,2013-03-10 05:00:00,
2013-03-10 00:05:00,40.5,34.5,29.98,SE,141,3.0,3.0,79,0.00,,---,0.00,VWS V14.01,2013-03-10 05:05:00,
2013-03-10 00:10:00,40.7,34.7,29.99,SE,134,1.0,5.0,79,0.00,,---,0.00,VWS V14.01,2013-03-10 05:10:00,
2013-03-10 00:15:00,40.9,34.6,29.99,East,89,2.0,5.0,78,0.00,,---,0.00,VWS V14.01,2013-03-10 05:15:00,
2013-03-10 00:20:00,40.9,34.6,29.99,ESE,117,0.0,5.0,78,0.00,,---,0.00,VWS V14.01,2013-03-10 05:20:00,
2013-03-10 00:25:00,41.0,34.7,29.99,SE,125,1.0,5.0,78,0.00,,---,0.00,VWS V14.01,2013-03-10 05:25:00,
2013-03-10 00:30:00,41.1,34.5,29.99,ESE,121,1.0,5.0,77,0.00,,---,0.00,VWS V14.01,2013-03-10 05:30:00,
2013-03-10 00:35:00,41.3,34.7,29.99,SSE,158,3.0,4.0,77,0.00,,---,0.00,VWS V14.01,2013-03-10 05:35:00,
2013-03-10 00:40:00,41.4,34.7,29.99,ESE,111,0.0,4.0,77,0.00,,---,0.00,VWS V14.01,2013-03-10 05:40:00,
2013-03-10 00:45:00,41.3,34.7,29.99,ESE,108,0.0,4.0,77,0.00,,---,0.00,VWS V14.01,2013-03-10 05:45:00,
2013-03-10 00:50:00,41.2,34.5,29.98,East,99,0.0,4.0,77,0.00,,---,0.00,VWS V14.01,2013-03-10 05:50:00,
2013-03-10 00:55:00,40.8,34.2,29.98,ESE,108,0.0,4.0,77,0.00,,---,0.00,VWS V14.01,2013-03-10 05:55:00,
2013-03-10 00:57:00,39.0,33.7,29.97,ESE,120,0.0,1.0,81,0.00,,---,0.00,VWS V14.01,2013-03-10 05:57:00,
2013-03-10 00:58:00,39.0,33.7,29.97,ESE,118,0.0,1.0,81,0.00,,---,0.00,VWS V14.01,2013-03-10 05:58:00,
2013-03-10 00:59:00,38.9,33.6,29.97,ESE,119,0.0,1.0,81,0.00,,---,0.00,VWS V14.01,2013-03-10 05:59:00,
2013-03-10 01:00:00,40.4,34.1,29.98,SE,135,1.0,4.0,78,0.00,,---,0.00,VWS V14.01,2013-03-10 06:00:00,
2013-03-10 01:05:00,40.1,34.1,29.98,East,94,0.0,2.0,79,0.00,,---,0.00,VWS V14.01,2013-03-10 06:05:00,
2013-03-10 01:10:00,40.1,34.1,29.98,ESE,115,0.0,2.0,79,0.00,,---,0.00,VWS V14.01,2013-03-10 06:10:00,
2013-03-10 01:15:00,39.9,33.9,29.98,ESE,119,0.0,2.0,79,0.00,,---,0.00,VWS V14.01,2013-03-10 06:15:00,
2013-03-10 01:20:00,39.6,33.6,29.98,ESE,120,1.0,2.0,79,0.00,,---,0.00,VWS V14.01,2013-03-10 06:20:00,
2013-03-10 01:25:00,39.7,34.0,29.98,ESE,110,0.0,2.0,80,0.00,,---,0.00,VWS V14.01,2013-03-10 06:25:00,
2013-03-10 01:30:00,39.7,34.0,29.97,ESE,110,0.0,2.0,80,0.00,,---,0.00,VWS V14.01,2013-03-10 06:30:00,
2013-03-10 01:35:00,39.6,34.0,29.97,SE,138,0.0,0.0,80,0.00,,---,0.00,VWS V14.01,2013-03-10 06:35:00,
2013-03-10 01:40:00,39.6,34.0,29.97,ESE,110,0.0,1.0,80,0.00,,---,0.00,VWS V14.01,2013-03-10 06:40:00,
2013-03-10 01:46:00,39.5,33.8,29.97,ESE,120,0.0,1.0,80,0.00,,---,0.00,VWS V14.01,2013-03-10 06:46:00,
2013-03-10 01:51:00,39.2,33.6,29.97,ESE,120,0.0,1.0,80,0.00,,---,0.00,VWS V14.01,2013-03-10 06:51:00,
2013-03-10 01:56:00,39.1,33.8,29.97,ESE,120,0.0,1.0,81,0.00,,---,0.00,VWS V14.01,2013-03-10 06:56:00,
2013-03-10 03:00:00,38.9,33.6,29.97,ESE,119,0.0,1.0,81,0.00,,---,0.00,VWS V14.01,2013-03-10 07:00:00,
2013-03-10 03:02:00,38.9,33.6,29.97,ESE,119,0.0,1.0,81,0.00,,---,0.00,VWS V14.01,2013-03-10 07:02:00,
2013-03-10 03:07:00,38.9,33.6,29.97,ESE,118,0.0,0.0,81,0.00,,---,0.00,VWS V14.01,2013-03-10 07:07:00,
2013-03-10 03:12:00,38.7,33.7,29.97,ESE,119,0.0,1.0,82,0.00,,---,0.00,VWS V14.01,2013-03-10 07:12:00,
2013-03-10 03:17:00,38.6,33.3,29.96,ESE,119,0.0,1.0,81,0.00,,---,0.00,VWS V14.01,2013-03-10 07:17:00,
2013-03-10 03:22:00,38.7,33.7,29.96,East,97,0.0,1.0,82,0.00,,---,0.00,VWS V14.01,2013-03-10 07:22:00,
2013-03-10 03:27:00,38.8,33.8,29.96,SE,129,0.0,1.0,82,0.00,,---,0.00,VWS V14.01,2013-03-10 07:27:00,
2013-03-10 03:30:00,38.9,33.6,29.96,SE,125,0.0,1.0,81,0.00,,---,0.00,VWS V14.01,2013-03-10 07:30:00,
2013-03-10 03:32:00,38.9,33.6,29.96,SE,125,0.0,0.0,81,0.00,,---,0.00,VWS V14.01,2013-03-10 07:32:00,
2013-03-10 03:37:00,39.0,33.7,29.96,ESE,119,0.0,1.0,81,0.00,,---,0.00,VWS V14.01,2013-03-10 07:37:00,
2013-03-10 03:42:00,39.1,33.8,29.96,SE,133,0.0,1.0,81,0.00,,---,0.00,VWS V14.01,2013-03-10 07:42:00,
2013-03-10 03:47:00,38.9,33.6,29.95,SE,133,0.0,1.0,81,0.00,,---,0.00,VWS V14.01,2013-03-10 07:47:00,
2013-03-10 03:52:00,38.8,33.5,29.95,SE,133,0.0,1.0,81,0.00,,---,0.00,VWS V14.01,2013-03-10 07:52:00,
2013-03-10 03:57:00,38.8,33.5,29.95,ESE,123,0.0,2.0,81,0.00,,---,0.00,VWS V14.01,2013-03-10 07:57:00,
2013-03-10 04:00:00,38.7,33.4,29.95,ESE,122,0.0,2.0,81,0.00,,---,0.00,VWS V14.01,2013-03-10 08:00:00,
2013-03-10 04:02:00,38.7,33.4,29.95,ESE,122,0.0,0.0,81,0.00,,---,0.00,VWS V14.01,2013-03-10 08:02:00,
2013-03-10 04:07:00,38.6,33.6,29.95,ESE,122,0.0,0.0,82,0.00,,---,0.00,VWS V14.01,2013-03-10 08:07:00,
2013-03-10 04:12:00,38.5,33.5,29.94,ESE,122,0.0,0.0,82,0.00,,---,0.00,VWS V14.01,2013-03-10 08:12:00,
2013-03-10 04:17:00,38.5,33.5,29.94,ESE,104,0.0,1.0,82,0.00,,---,0.00,VWS V14.01,2013-03-10 08:17:00,
2013-03-10 04:22:00,38.8,33.8,29.94,ENE,75,0.0,1.0,82,0.00,,---,0.00,VWS V14.01,2013-03-10 08:22:00,
2013-03-10 04:27:00,39.3,34.0,29.94,SE,130,0.0,2.0,81,0.00,,---,0.00,VWS V14.01,2013-03-10 08:27:00,
2013-03-10 04:30:00,39.4,33.8,29.94,SE,129,0.0,2.0,80,0.00,,---,0.00,VWS V14.01,2013-03-10 08:30:00,
2013-03-10 04:32:00,39.4,33.8,29.94,SE,133,0.0,0.0,80,0.00,,---,0.00,VWS V14.01,2013-03-10 08:32:00,
2013-03-10 04:37:00,39.6,34.0,29.94,ESE,115,0.0,2.0,80,0.00,,---,0.00,VWS V14.01,2013-03-10 08:37:00,
2013-03-10 04:42:00,39.9,33.9,29.94,East,99,0.0,2.0,79,0.00,,---,0.00,VWS V14.01,2013-03-10 08:42:00,
2013-03-10 04:47:00,40.1,34.1,29.94,East,99,0.0,2.0,79,0.00,,---,0.00,VWS V14.01,2013-03-10 08:47:00,
2013-03-10 04:52:00,40.3,34.0,29.93,East,101,0.0,2.0,78,0.00,,---,0.00,VWS V14.01,2013-03-10 08:52:00,
2013-03-10 04:57:00,40.8,34.5,29.93,ESE,121,0.0,3.0,78,0.00,,---,0.00,VWS V14.01,2013-03-10 08:57:00,
2013-03-10 05:00:00,41.1,34.5,29.93,ENE,63,2.0,4.0,77,0.00,,---,0.00,VWS V14.01,2013-03-10 09:00:00,
2013-03-10 05:02:00,41.0,34.3,29.93,ESE,120,1.0,2.0,77,0.00,,---,0.00,VWS V14.01,2013-03-10 09:02:00,
2013-03-10 05:07:00,41.1,34.5,29.93,SE,130,1.0,3.0,77,0.00,,---,0.00,VWS V14.01,2013-03-10 09:07:00,
2013-03-10 05:12:00,41.3,34.7,29.93,ESE,120,1.0,3.0,77,0.00,,---,0.00,VWS V14.01,2013-03-10 09:12:00,
2013-03-10 05:17:00,41.4,34.7,29.93,ESE,122,0.0,3.0,77,0.00,,---,0.00,VWS V14.01,2013-03-10 09:17:00,
2013-03-10 05:22:00,41.5,34.8,29.93,ESE,117,1.0,3.0,77,0.00,,---,0.00,VWS V14.01,2013-03-10 09:22:00,
2013-03-10 05:27:00,41.6,35.3,29.93,SE,133,2.0,6.0,78,0.00,,---,0.00,VWS V14.01,2013-03-10 09:27:00,
2013-03-10 05:30:00,41.6,35.6,29.93,SE,136,0.0,6.0,79,0.00,,---,0.00,VWS V14.01,2013-03-10 09:30:00,
2013-03-10 05:32:00,41.5,35.5,29.93,ESE,120,2.0,3.0,79,0.00,,---,0.00,VWS V14.01,2013-03-10 09:32:00,
2013-03-10 05:37:00,41.3,35.6,29.93,SE,134,4.0,5.0,80,0.00,,---,0.00,VWS V14.01,2013-03-10 09:37:00,
2013-03-10 05:42:00,41.1,35.4,29.93,ESE,112,4.0,5.0,80,0.00,,---,0.00,VWS V14.01,2013-03-10 09:42:00,
2013-03-10 05:48:00,41.1,35.4,29.93,ESE,111,1.0,6.0,80,0.00,,---,0.00,VWS V14.01,2013-03-10 09:48:00,
2013-03-10 05:53:00,41.1,35.4,29.93,SSE,149,1.0,6.0,80,0.00,,---,0.00,VWS V14.01,2013-03-10 09:53:00,
2013-03-10 05:58:00,41.2,35.2,29.94,ESE,120,1.0,6.0,79,0.00,,---,0.00,VWS V14.01,2013-03-10 09:58:00,
2013-03-10 06:00:00,41.2,35.2,29.94,SE,144,2.0,6.0,79,0.00,,---,0.00,VWS V14.01,2013-03-10 10:00:00,
2013-03-10 06:03:00,41.3,35.3,29.94,ESE,117,1.0,2.0,79,0.00,,---,0.00,VWS V14.01,2013-03-10 10:03:00,
2013-03-10 06:08:00,41.3,35.3,29.94,East,94,0.0,3.0,79,0.00,,---,0.00,VWS V14.01,2013-03-10 10:08:00,
2013-03-10 06:13:00,41.3,35.3,29.94,East,79,1.0,3.0,79,0.00,,---,0.00,VWS V14.01,2013-03-10 10:13:00,
2013-03-10 06:18:00,41.3,35.3,29.94,ESE,115,0.0,3.0,79,0.00,,---,0.00,VWS V14.01,2013-03-10 10:18:00,
2013-03-10 06:23:00,41.3,35.0,29.94,ESE,121,0.0,3.0,78,0.00,,---,0.00,VWS V14.01,2013-03-10 10:23:00,
2013-03-10 06:28:00,41.3,35.0,29.94,ESE,122,0.0,3.0,78,0.00,,---,0.00,VWS V14.01,2013-03-10 10:28:00,
2013-03-10 06:30:00,41.3,35.0,29.94,ESE,120,1.0,3.0,78,0.00,,---,0.00,VWS V14.01,2013-03-10 10:30:00,
2013-03-10 06:33:00,41.3,35.0,29.94,ESE,102,0.0,1.0,78,0.00,,---,0.00,VWS V14.01,2013-03-10 10:33:00,
2013-03-10 06:38:00,41.3,35.0,29.94,East,93,1.0,2.0,78,0.00,,---,0.00,VWS V14.01,2013-03-10 10:38:00,
2013-03-10 06:43:00,41.5,34.8,29.94,ESE,109,1.0,3.0,77,0.00,,---,0.00,VWS V14.01,2013-03-10 10:43:00,
2013-03-10 06:48:00,41.5,34.8,29.94,ESE,109,0.0,3.0,77,0.00,,---,0.00,VWS V14.01,2013-03-10 10:48:00,
2013-03-10 06:53:00,41.5,34.8,29.94,ESE,106,0.0,3.0,77,0.00,,---,0.00,VWS V14.01,2013-03-10 10:53:00,
2013-03-10 06:58:00,41.5,34.8,29.95,ESE,118,0.0,3.0,77,0.00,,---,0.00,VWS V14.01,2013-03-10 10:58:00,
2013-03-10 07:00:00,41.6,34.9,29.95,East,101,0.0,3.0,77,0.00,,---,0.00,VWS V14.01,2013-03-10 11:00:00,
2013-03-10 07:03:00,41.6,34.9,29.95,ESE,119,1.0,2.0,77,0.00,,---,0.00,VWS V14.01,2013-03-10 11:03:00,
2013-03-10 07:08:00,41.6,34.9,29.95,SE,125,0.0,2.0,77,0.00,,---,0.00,VWS V14.01,2013-03-10 11:08:00,
2013-03-10 07:13:00,41.5,34.8,29.95,ESE,118,0.0,2.0,77,0.00,,---,0.00,VWS V14.01,2013-03-10 11:13:00,
2013-03-10 07:18:00,41.5,34.8,29.94,East,98,0.0,3.0,77,0.00,,---,0.00,VWS V14.01,2013-03-10 11:18:00,
2013-03-10 07:23:00,41.6,34.6,29.94,ESE,115,2.0,3.0,76,0.00,,---,0.00,VWS V14.01,2013-03-10 11:23:00,
2013-03-10 07:28:00,41.7,34.7,29.94,ENE,78,1.0,4.0,76,0.00,,---,0.00,VWS V14.01,2013-03-10 11:28:00,
2013-03-10 07:30:00,41.9,34.9,29.94,ESE,121,0.0,4.0,76,0.00,,---,0.00,VWS V14.01,2013-03-10 11:30:00,
2013-03-10 07:33:00,41.8,34.8,29.94,ESE,120,0.0,0.0,76,0.00,,---,0.00,VWS V14.01,2013-03-10 11:33:00,
2013-03-10 07:38:00,41.9,34.9,29.95,SE,126,0.0,3.0,76,0.00,,---,0.00,VWS V14.01,2013-03-10 11:38:00,
2013-03-10 07:43:00,41.9,34.6,29.95,ESE,123,3.0,5.0,75,0.00,,---,0.00,VWS V14.01,2013-03-10 11:43:00,
2013-03-10 07:48:00,42.0,34.7,29.95,ESE,115,0.0,5.0,75,0.00,,---,0.00,VWS V14.01,2013-03-10 11:48:00,
2013-03-10 07:53:00,42.0,34.7,29.95,ESE,102,1.0,5.0,75,0.00,,---,0.00,VWS V14.01,2013-03-10 11:53:00,
2013-03-10 07:58:00,42.1,34.8,29.95,ESE,114,1.0,5.0,75,0.00,,---,0.00,VWS V14.01,2013-03-10 11:58:00,
2013-03-10 08:00:00,42.1,34.8,29.95,SE,145,2.0,5.0,75,0.00,,---,0.00,VWS V14.01,2013-03-10 12:00:00,
2013-03-10 08:03:00,42.2,34.9,29.95,ESE,111,3.0,4.0,75,0.00,,---,0.00,VWS V14.01,2013-03-10 12:03:00,
2013-03-10 08:08:00,42.3,35.0,29.95,SSE,150,3.0,7.0,75,0.00,,---,0.00,VWS V14.01,2013-03-10 12:08:00,
2013-03-10 08:13:00,42.4,34.7,29.94,SE,134,2.0,7.0,74,0.00,,---,0.00,VWS V14.01,2013-03-10 12:13:00,
2013-03-10 08:18:00,42.5,34.8,29.94,SE,125,4.0,7.0,74,0.00,,---,0.00,VWS V14.01,2013-03-10 12:18:00,
2013-03-10 08:23:00,42.4,34.7,29.94,ESE,123,1.0,7.0,74,0.00,,---,0.00,VWS V14.01,2013-03-10 12:23:00,
2013-03-10 08:28:00,42.4,34.7,29.94,ESE,122,4.0,7.0,74,0.00,,---,0.00,VWS V14.01,2013-03-10 12:28:00,
2013-03-10 08:30:00,42.6,34.9,29.94,SE,140,2.0,7.0,74,0.00,,---,0.00,VWS V14.01,2013-03-10 12:30:00,
2013-03-10 08:33:00,42.7,35.0,29.94,ESE,122,7.0,7.0,74,0.00,,---,0.00,VWS V14.01,2013-03-10 12:33:00,
2013-03-10 08:38:00,42.8,35.1,29.94,ESE,107,2.0,7.0,74,0.00,,---,0.00,VWS V14.01,2013-03-10 12:38:00,
2013-03-10 08:43:00,42.8,35.1,29.94,East,81,4.0,7.0,74,0.00,,---,0.00,VWS V14.01,2013-03-10 12:43:00,
2013-03-10 08:48:00,42.9,34.8,29.94,ESE,108,2.0,7.0,73,0.00,,---,0.00,VWS V14.01,2013-03-10 12:48:00,
2013-03-10 08:53:00,42.8,35.1,29.95,SE,143,2.0,7.0,74,0.00,,---,0.00,VWS V14.01,2013-03-10 12:53:00,
2013-03-10 08:58:00,43.0,35.3,29.95,ESE,122,2.0,7.0,74,0.00,,---,0.00,VWS V14.01,2013-03-10 12:58:00,
2013-03-10 09:00:00,43.2,35.1,29.94,ESE,121,2.0,7.0,73,0.00,,---,0.00,VWS V14.01,2013-03-10 13:00:00,
2013-03-10 09:03:00,43.2,35.1,29.94,ESE,111,1.0,3.0,73,0.00,,---,0.00,VWS V14.01,2013-03-10 13:03:00,
2013-03-10 09:08:00,43.2,35.1,29.94,SE,143,5.0,5.0,73,0.00,,---,0.00,VWS V14.01,2013-03-10 13:08:00,
2013-03-10 09:13:00,43.3,35.2,29.94,ENE,64,1.0,6.0,73,0.00,,---,0.00,VWS V14.01,2013-03-10 13:13:00,
2013-03-10 09:18:00,43.4,35.3,29.93,East,95,1.0,6.0,73,0.00,,---,0.00,VWS V14.01,2013-03-10 13:18:00,
2013-03-10 09:23:00,43.7,35.6,29.93,SE,129,1.0,6.0,73,0.00,,---,0.00,VWS V14.01,2013-03-10 13:23:00,
2013-03-10 09:28:00,43.9,35.5,29.93,SE,133,2.0,6.0,72,0.00,,---,0.00,VWS V14.01,2013-03-10 13:28:00,
2013-03-10 09:30:00,44.0,35.6,29.92,ESE,117,0.0,6.0,72,0.00,,---,0.00,VWS V14.01,2013-03-10 13:30:00,
2013-03-10 09:33:00,44.1,35.7,29.92,ESE,119,0.0,1.0,72,0.00,,---,0.00,VWS V14.01,2013-03-10 13:33:00,
2013-03-10 09:38:00,44.1,35.7,29.93,SSW,204,1.0,3.0,72,0.00,,---,0.00,VWS V14.01,2013-03-10 13:38:00,
2013-03-10 09:43:00,44.0,35.6,29.93,ESE,114,1.0,3.0,72,0.00,,---,0.00,VWS V14.01,2013-03-10 13:43:00,
2013-03-10 09:48:00,43.9,35.5,29.93,ESE,117,1.0,4.0,72,0.00,,---,0.00,VWS V14.01,2013-03-10 13:48:00,
2013-03-10 09:53:00,44.0,35.6,29.94,ESE,108,0.0,6.0,72,0.00,,---,0.00,VWS V14.01,2013-03-10 13:53:00,
2013-03-10 09:58:00,44.2,35.8,29.94,SE,135,1.0,6.0,72,0.00,,---,0.00,VWS V14.01,2013-03-10 13:58:00,
2013-03-10 10:00:00,44.3,35.9,29.94,SE,129,1.0,6.0,72,0.00,,---,0.00,VWS V14.01,2013-03-10 14:00:00,
2013-03-10 10:03:00,44.4,36.0,29.93,SE,139,5.0,5.0,72,0.00,,---,0.00,VWS V14.01,2013-03-10 14:03:00,
2013-03-10 10:08:00,44.9,36.1,29.93,SSE,154,2.0,5.0,71,0.00,,---,0.00,VWS V14.01,2013-03-10 14:08:00,
2013-03-10 10:13:00,45.4,36.2,29.93,SSE,167,1.0,5.0,70,0.00,,---,0.00,VWS V14.01,2013-03-10 14:13:00,
2013-03-10 10:18:00,45.7,36.5,29.92,ESE,106,1.0,5.0,70,0.00,,---,0.00,VWS V14.01,2013-03-10 14:18:00,
2013-03-10 10:23:00,45.9,36.3,29.92,ESE,110,2.0,5.0,69,0.00,,---,0.00,VWS V14.01,2013-03-10 14:23:00,
2013-03-10 10:28:00,46.2,36.6,29.92,ESE,105,2.0,5.0,69,0.00,,---,0.00,VWS V14.01,2013-03-10 14:28:00,
2013-03-10 10:30:00,46.6,37.0,29.92,ESE,115,2.0,5.0,69,0.00,,---,0.00,VWS V14.01,2013-03-10 14:30:00,
2013-03-10 10:34:00,46.8,36.8,29.93,SE,142,1.0,3.0,68,0.00,,---,0.00,VWS V14.01,2013-03-10 14:34:00,
2013-03-10 10:39:00,47.4,37.0,29.93,SE,145,3.0,4.0,67,0.00,,---,0.00,VWS V14.01,2013-03-10 14:39:00,
2013-03-10 10:44:00,47.7,36.9,29.93,SSE,152,3.0,6.0,66,0.00,,---,0.00,VWS V14.01,2013-03-10 14:44:00,
2013-03-10 10:49:00,48.2,37.4,29.93,SE,131,0.0,6.0,66,0.00,,---,0.00,VWS V14.01,2013-03-10 14:49:00,
2013-03-10 10:54:00,48.8,37.6,29.93,SE,140,3.0,6.0,65,0.00,,---,0.00,VWS V14.01,2013-03-10 14:54:00,
2013-03-10 10:59:00,49.4,37.8,29.93,SE,135,3.0,6.0,64,0.00,,---,0.00,VWS V14.01,2013-03-10 14:59:00,
2013-03-10 11:00:00,49.8,37.7,29.92,East,98,1.0,6.0,63,0.00,,---,0.00,VWS V14.01,2013-03-10 15:00:00,
2013-03-10 11:04:00,50.0,37.9,29.92,South,181,1.0,3.0,63,0.00,,---,0.00,VWS V14.01,2013-03-10 15:04:00,
2013-03-10 11:09:00,50.6,38.1,29.92,SSE,152,3.0,5.0,62,0.00,,---,0.00,VWS V14.01,2013-03-10 15:09:00,
2013-03-10 11:14:00,51.4,38.4,29.92,SSW,208,2.0,7.0,61,0.00,,---,0.00,VWS V14.01,2013-03-10 15:14:00,
2013-03-10 11:19:00,52.3,38.4,29.92,SE,145,2.0,7.0,59,0.00,,---,0.00,VWS V14.01,2013-03-10 15:19:00,
2013-03-10 11:24:00,52.4,38.1,29.92,SSW,198,2.0,10.0,58,0.00,,---,0.00,VWS V14.01,2013-03-10 15:24:00,
2013-03-10 11:29:00,52.3,38.0,29.93,SE,125,5.0,11.0,58,0.00,,---,0.00,VWS V14.01,2013-03-10 15:29:00,
2013-03-10 11:30:00,52.3,38.0,29.93,East,94,7.0,11.0,58,0.00,,---,0.00,VWS V14.01,2013-03-10 15:30:00,
2013-03-10 11:34:00,52.3,38.0,29.93,SW,214,2.0,8.0,58,0.00,,---,0.00,VWS V14.01,2013-03-10 15:34:00,
2013-03-10 11:39:00,52.5,38.2,29.93,South,189,3.0,8.0,58,0.00,,---,0.00,VWS V14.01,2013-03-10 15:39:00,
2013-03-10 11:44:00,53.0,38.6,29.92,SW,228,7.0,9.0,58,0.00,,---,0.00,VWS V14.01,2013-03-10 15:44:00,
2013-03-10 11:49:00,53.4,38.6,29.92,South,190,2.0,11.0,57,0.00,,---,0.00,VWS V14.01,2013-03-10 15:49:00,
2013-03-10 11:54:00,54.1,38.8,29.92,South,181,5.0,11.0,56,0.00,,---,0.00,VWS V14.01,2013-03-10 15:54:00,
2013-03-10 11:59:00,54.3,38.5,29.92,SE,137,3.0,12.0,55,0.00,,---,0.00,VWS V14.01,2013-03-10 15:59:00,
2013-03-10 12:00:00,54.2,38.9,29.91,SSE,166,4.0,12.0,56,0.00,,---,0.00,VWS V14.01,2013-03-10 16:00:00,
2013-03-10 12:04:00,54.2,38.9,29.92,South,186,2.0,6.0,56,0.00,,---,0.00,VWS V14.01,2013-03-10 16:04:00,
2013-03-10 12:09:00,53.9,38.6,29.92,SSW,193,4.0,13.0,56,0.00,,---,0.00,VWS V14.01,2013-03-10 16:09:00,
2013-03-10 12:14:00,53.5,38.7,29.91,SE,134,4.0,13.0,57,0.00,,---,0.00,VWS V14.01,2013-03-10 16:14:00,
2013-03-10 12:19:00,53.0,38.6,29.92,SSW,200,7.0,13.0,58,0.00,,---,0.00,VWS V14.01,2013-03-10 16:19:00,
2013-03-10 12:24:00,53.0,38.6,29.92,SSE,166,5.0,13.0,58,0.00,,---,0.00,VWS V14.01,2013-03-10 16:24:00,
2013-03-10 12:29:00,53.2,38.8,29.91,SW,236,3.0,13.0,58,0.00,,---,0.00,VWS V14.01,2013-03-10 16:29:00,
2013-03-10 12:30:00,53.4,39.0,29.92,SSE,162,2.0,13.0,58,0.00,,---,0.00,VWS V14.01,2013-03-10 16:30:00,
2013-03-10 12:34:00,53.6,38.8,29.92,SSW,194,4.0,9.0,57,0.00,,---,0.00,VWS V14.01,2013-03-10 16:34:00,
2013-03-10 12:39:00,53.9,39.0,29.91,SSE,149,4.0,9.0,57,0.00,,---,0.00,VWS V14.01,2013-03-10 16:39:00,
2013-03-10 12:44:00,54.1,39.2,29.91,SSW,208,5.0,9.0,57,0.00,,---,0.00,VWS V14.01,2013-03-10 16:44:00,
2013-03-10 12:49:00,55.0,39.6,29.90,SE,127,11.0,12.0,56,0.00,,---,0.00,VWS V14.01,2013-03-10 16:49:00,
2013-03-10 12:54:00,55.3,39.9,29.90,SE,139,4.0,12.0,56,0.00,,---,0.00,VWS V14.01,2013-03-10 16:54:00,
2013-03-10 12:59:00,55.6,39.7,29.90,ESE,105,12.0,16.0,55,0.00,,---,0.00,VWS V14.01,2013-03-10 16:59:00,
2013-03-10 13:00:00,55.6,39.7,29.90,ESE,115,5.0,16.0,55,0.00,,---,0.00,VWS V14.01,2013-03-10 17:00:00,
2013-03-10 13:04:00,55.5,39.6,29.90,SSW,212,5.0,12.0,55,0.00,,---,0.00,VWS V14.01,2013-03-10 17:04:00,
2013-03-10 13:09:00,55.9,40.0,29.90,SE,136,8.0,14.0,55,0.00,,---,0.00,VWS V14.01,2013-03-10 17:09:00,
2013-03-10 13:14:00,55.8,39.9,29.89,SW,222,6.0,14.0,55,0.00,,---,0.00,VWS V14.01,2013-03-10 17:14:00,
2013-03-10 13:19:00,55.8,39.9,29.89,SSW,210,3.0,14.0,55,0.00,,---,0.00,VWS V14.01,2013-03-10 17:19:00,
2013-03-10 13:24:00,55.6,39.7,29.89,SSW,198,6.0,15.0,55,0.00,,---,0.00,VWS V14.01,2013-03-10 17:24:00,
2013-03-10 13:29:00,55.4,39.5,29.89,SE,139,7.0,15.0,55,0.00,,---,0.00,VWS V14.01,2013-03-10 17:29:00,
2013-03-10 13:30:00,55.4,40.0,29.89,South,188,3.0,15.0,56,0.00,,---,0.00,VWS V14.01,2013-03-10 17:30:00,
2013-03-10 13:34:00,55.3,39.9,29.89,SSE,155,2.0,10.0,56,0.00,,---,0.00,VWS V14.01,2013-03-10 17:34:00,
2013-03-10 13:39:00,55.3,39.9,29.88,SSE,151,7.0,14.0,56,0.00,,---,0.00,VWS V14.01,2013-03-10 17:39:00,
2013-03-10 13:44:00,55.5,40.1,29.88,SSW,201,5.0,14.0,56,0.00,,---,0.00,VWS V14.01,2013-03-10 17:44:00,
2013-03-10 13:49:00,56.0,40.5,29.88,SE,138,5.0,14.0,56,0.00,,---,0.00,VWS V14.01,2013-03-10 17:49:00,
2013-03-10 13:54:00,56.7,41.2,29.88,SE,143,4.0,14.0,56,0.00,,---,0.00,VWS V14.01,2013-03-10 17:54:00,
2013-03-10 13:59:00,57.5,41.5,29.88,SSW,211,5.0,14.0,55,0.00,,---,0.00,VWS V14.01,2013-03-10 17:59:00,
2013-03-10 14:00:00,58.0,41.5,29.88,SE,132,4.0,14.0,54,0.00,,---,0.00,VWS V14.01,2013-03-10 18:00:00,
2013-03-10 14:05:00,58.0,41.5,29.88,ESE,122,6.0,10.0,54,0.00,,---,0.00,VWS V14.01,2013-03-10 18:05:00,
2013-03-10 14:10:00,57.9,41.8,29.88,SSE,150,6.0,12.0,55,0.00,,---,0.00,VWS V14.01,2013-03-10 18:10:00,
2013-03-10 14:15:00,58.0,41.9,29.89,SSE,156,3.0,14.0,55,0.00,,---,0.00,VWS V14.01,2013-03-10 18:15:00,
2013-03-10 14:20:00,57.8,41.8,29.89,SE,138,8.0,14.0,55,0.00,,---,0.00,VWS V14.01,2013-03-10 18:20:00,
2013-03-10 14:25:00,57.6,42.0,29.89,South,188,2.0,14.0,56,0.00,,---,0.00,VWS V14.01,2013-03-10 18:25:00,
2013-03-10 14:30:00,57.5,41.9,29.90,South,189,3.0,14.0,56,0.00,,---,0.00,VWS V14.01,2013-03-10 18:30:00,
2013-03-10 14:35:00,57.4,42.3,29.89,SE,127,6.0,14.0,57,0.00,,---,0.00,VWS V14.01,2013-03-10 18:35:00,
2013-03-10 14:40:00,57.7,42.6,29.89,SE,145,3.0,14.0,57,0.00,,---,0.00,VWS V14.01,2013-03-10 18:40:00,
2013-03-10 14:45:00,57.8,42.7,29.89,South,190,4.0,14.0,57,0.00,,---,0.00,VWS V14.01,2013-03-10 18:45:00,
2013-03-10 14:50:00,57.8,42.7,29.89,South,188,5.0,14.0,57,0.00,,---,0.00,VWS V14.01,2013-03-10 18:50:00,
2013-03-10 14:55:00,58.0,42.9,29.88,SSW,200,4.0,14.0,57,0.00,,---,0.00,VWS V14.01,2013-03-10 18:55:00,
2013-03-10 15:00:00,58.1,43.0,29.88,SE,133,10.0,14.0,57,0.00,,---,0.00,VWS V14.01,2013-03-10 19:00:00,
2013-03-10 15:05:00,58.2,43.1,29.87,SE,133,2.0,6.0,57,0.00,,---,0.00,VWS V14.01,2013-03-10 19:05:00,
2013-03-10 15:10:00,58.3,43.2,29.87,SE,139,3.0,10.0,57,0.00,,---,0.00,VWS V14.01,2013-03-10 19:10:00,
2013-03-10 15:15:00,58.9,43.7,29.86,SW,214,4.0,10.0,57,0.00,,---,0.00,VWS V14.01,2013-03-10 19:15:00,
2013-03-10 15:20:00,59.8,44.1,29.86,SE,137,4.0,10.0,56,0.00,,---,0.00,VWS V14.01,2013-03-10 19:20:00,
2013-03-10 15:25:00,60.1,43.9,29.85,SE,128,3.0,10.0,55,0.00,,---,0.00,VWS V14.01,2013-03-10 19:25:00,
2013-03-10 15:30:00,60.2,44.0,29.85,SSE,150,3.0,12.0,55,0.00,,---,0.00,VWS V14.01,2013-03-10 19:30:00,
2013-03-10 15:35:00,60.3,44.1,29.85,SSW,194,2.0,7.0,55,0.00,,---,0.00,VWS V14.01,2013-03-10 19:35:00,
2013-03-10 15:40:00,60.8,44.5,29.84,SSE,155,1.0,8.0,55,0.00,,---,0.00,VWS V14.01,2013-03-10 19:40:00,
2013-03-10 15:45:00,61.3,44.0,29.83,ESE,105,7.0,8.0,53,0.00,,---,0.00,VWS V14.01,2013-03-10 19:45:00,
2013-03-10 15:50:00,61.6,45.3,29.83,SSE,159,1.0,8.0,55,0.00,,---,0.00,VWS V14.01,2013-03-10 19:50:00,
2013-03-10 15:55:00,61.3,43.5,29.82,SE,134,2.0,10.0,52,0.00,,---,0.00,VWS V14.01,2013-03-10 19:55:00,
2013-03-10 16:00:00,60.9,44.2,29.82,SE,138,3.0,12.0,54,0.00,,---,0.00,VWS V14.01,2013-03-10 20:00:00,
2013-03-10 16:05:00,60.4,43.7,29.82,SSE,162,4.0,5.0,54,0.00,,---,0.00,VWS V14.01,2013-03-10 20:05:00,
2013-03-10 16:10:00,60.0,43.8,29.82,East,82,1.0,7.0,55,0.00,,---,0.00,VWS V14.01,2013-03-10 20:10:00,
2013-03-10 16:15:00,60.2,44.5,29.82,ESE,104,1.0,7.0,56,0.00,,---,0.00,VWS V14.01,2013-03-10 20:15:00,
2013-03-10 16:20:00,60.3,44.1,29.83,SE,137,7.0,9.0,55,0.00,,---,0.00,VWS V14.01,2013-03-10 20:20:00,
2013-03-10 16:26:00,60.3,44.1,29.83,SE,125,2.0,9.0,55,0.00,,---,0.00,VWS V14.01,2013-03-10 20:26:00,
2013-03-10 16:30:00,60.2,43.0,29.83,SE,134,4.0,13.0,53,0.00,,---,0.00,VWS V14.01,2013-03-10 20:30:00,
2013-03-10 16:31:00,60.3,43.6,29.83,ESE,122,6.0,9.0,54,0.00,,---,0.00,VWS V14.01,2013-03-10 20:31:00,
2013-03-10 16:36:00,60.2,43.5,29.83,SE,136,3.0,8.0,54,0.00,,---,0.00,VWS V14.01,2013-03-10 20:36:00,
2013-03-10 16:41:00,60.4,43.7,29.84,SW,219,3.0,10.0,54,0.00,,---,0.00,VWS V14.01,2013-03-10 20:41:00,
2013-03-10 16:46:00,60.4,43.2,29.84,SSW,197,3.0,11.0,53,0.00,,---,0.00,VWS V14.01,2013-03-10 20:46:00,
2013-03-10 16:51:00,60.2,43.0,29.83,SE,133,1.0,11.0,53,0.00,,---,0.00,VWS V14.01,2013-03-10 20:51:00,
2013-03-10 16:56:00,59.9,43.2,29.83,SE,134,6.0,11.0,54,0.00,,---,0.00,VWS V14.01,2013-03-10 20:56:00,
2013-03-10 17:00:00,59.7,42.6,29.84,SE,129,2.0,11.0,53,0.00,,---,0.00,VWS V14.01,2013-03-10 21:00:00,
2013-03-10 17:01:00,59.7,43.0,29.84,SSE,149,3.0,11.0,54,0.00,,---,0.00,VWS V14.01,2013-03-10 21:01:00,
2013-03-10 17:06:00,59.6,42.5,29.84,South,186,5.0,8.0,53,0.00,,---,0.00,VWS V14.01,2013-03-10 21:06:00,
2013-03-10 17:11:00,59.6,42.5,29.84,WSW,239,3.0,10.0,53,0.00,,---,0.00,VWS V14.01,2013-03-10 21:11:00,
2013-03-10 17:16:00,59.7,42.6,29.84,SSE,159,4.0,10.0,53,0.00,,---,0.00,VWS V14.01,2013-03-10 21:16:00,
2013-03-10 17:21:00,59.7,42.1,29.84,SSW,207,3.0,10.0,52,0.00,,---,0.00,VWS V14.01,2013-03-10 21:21:00,
2013-03-10 17:26:00,59.8,42.2,29.83,South,171,2.0,10.0,52,0.00,,---,0.00,VWS V14.01,2013-03-10 21:26:00,
2013-03-10 17:30:00,60.0,41.8,29.83,ESE,115,1.0,10.0,51,0.00,,---,0.00,VWS V14.01,2013-03-10 21:30:00,
2013-03-10 17:32:00,60.0,41.8,29.83,South,187,3.0,10.0,51,0.00,,---,0.00,VWS V14.01,2013-03-10 21:32:00,
2013-03-10 17:37:00,59.9,41.8,29.83,South,173,1.0,8.0,51,0.00,,---,0.00,VWS V14.01,2013-03-10 21:37:00,
2013-03-10 17:42:00,59.8,40.6,29.82,SE,136,11.0,12.0,49,0.00,,---,0.00,VWS V14.01,2013-03-10 21:42:00,
2013-03-10 17:47:00,59.9,40.7,29.82,SE,138,6.0,12.0,49,0.00,,---,0.00,VWS V14.01,2013-03-10 21:47:00,
2013-03-10 17:52:00,59.7,40.5,29.82,SE,138,3.0,12.0,49,0.00,,---,0.00,VWS V14.01,2013-03-10 21:52:00,
2013-03-10 17:57:00,59.7,40.5,29.82,SE,137,6.0,12.0,49,0.00,,---,0.00,VWS V14.01,2013-03-10 21:57:00,
2013-03-10 18:00:00,59.7,40.0,29.82,SE,129,4.0,12.0,48,0.00,,---,0.00,VWS V14.01,2013-03-10 22:00:00,
2013-03-10 18:02:00,59.6,39.9,29.82,ESE,115,4.0,12.0,48,0.00,,---,0.00,VWS V14.01,2013-03-10 22:02:00,
2013-03-10 18:07:00,59.3,40.7,29.81,SE,136,5.0,5.0,50,0.00,,---,0.00,VWS V14.01,2013-03-10 22:07:00,
2013-03-10 18:12:00,58.8,40.2,29.81,ESE,102,5.0,9.0,50,0.00,,---,0.00,VWS V14.01,2013-03-10 22:12:00,
2013-03-10 18:17:00,58.3,40.3,29.80,East,87,3.0,9.0,51,0.00,,---,0.00,VWS V14.01,2013-03-10 22:17:00,
2013-03-10 18:22:00,57.9,40.4,29.79,SE,133,2.0,9.0,52,0.00,,---,0.00,VWS V14.01,2013-03-10 22:22:00,
2013-03-10 18:27:00,57.6,40.6,29.79,SE,139,1.0,9.0,53,0.00,,---,0.00,VWS V14.01,2013-03-10 22:27:00,
2013-03-10 18:30:00,57.4,40.4,29.79,ESE,121,1.0,9.0,53,0.00,,---,0.00,VWS V14.01,2013-03-10 22:30:00,
2013-03-10 18:32:00,57.4,40.4,29.79,SSE,168,1.0,1.0,53,0.00,,---,0.00,VWS V14.01,2013-03-10 22:32:00,
2013-03-10 18:37:00,57.2,40.2,29.78,SSE,149,2.0,4.0,53,0.00,,---,0.00,VWS V14.01,2013-03-10 22:37:00,
2013-03-10 18:42:00,57.2,40.2,29.78,SE,146,5.0,5.0,53,0.00,,---,0.00,VWS V14.01,2013-03-10 22:42:00,
2013-03-10 18:47:00,57.0,40.5,29.78,SE,127,2.0,6.0,54,0.00,,---,0.00,VWS V14.01,2013-03-10 22:47:00,
2013-03-10 18:52:00,56.8,40.8,29.79,SE,138,3.0,6.0,55,0.00,,---,0.00,VWS V14.01,2013-03-10 22:52:00,
2013-03-10 18:57:00,56.7,40.7,29.79,SE,142,2.0,6.0,55,0.00,,---,0.00,VWS V14.01,2013-03-10 22:57:00,
2013-03-10 19:00:00,56.4,40.9,29.79,SE,132,3.0,6.0,56,0.00,,---,0.00,VWS V14.01,2013-03-10 23:00:00,
2013-03-10 19:03:00,56.3,40.8,29.79,SE,146,4.0,5.0,56,0.00,,---,0.00,VWS V14.01,2013-03-10 23:03:00,
2013-03-10 19:08:00,56.1,41.1,29.79,SE,130,1.0,6.0,57,0.00,,---,0.00,VWS V14.01,2013-03-10 23:08:00,
2013-03-10 19:13:00,55.9,41.3,29.79,SE,138,4.0,6.0,58,0.00,,---,0.00,VWS V14.01,2013-03-10 23:13:00,
2013-03-10 19:18:00,55.7,41.6,29.79,SSE,150,3.0,6.0,59,0.00,,---,0.00,VWS V14.01,2013-03-10 23:18:00,
2013-03-10 19:23:00,55.5,41.4,29.80,SSE,148,2.0,6.0,59,0.00,,---,0.00,VWS V14.01,2013-03-10 23:23:00,
2013-03-10 19:28:00,55.3,41.7,29.80,SE,129,1.0,6.0,60,0.00,,---,0.00,VWS V14.01,2013-03-10 23:28:00,
2013-03-10 19:30:00,55.1,41.5,29.80,SE,144,5.0,6.0,60,0.00,,---,0.00,VWS V14.01,2013-03-10 23:30:00,
2013-03-10 19:33:00,55.1,41.5,29.80,ESE,117,3.0,6.0,60,0.00,,---,0.00,VWS V14.01,2013-03-10 23:33:00,
2013-03-10 19:38:00,55.0,41.4,29.80,ESE,103,3.0,7.0,60,0.00,,---,0.00,VWS V14.01,2013-03-10 23:38:00,
2013-03-10 19:43:00,54.8,41.6,29.80,SE,129,3.0,7.0,61,0.00,,---,0.00,VWS V14.01,2013-03-10 23:43:00,
2013-03-10 19:48:00,54.7,42.0,29.80,ESE,122,1.0,7.0,62,0.00,,---,0.00,VWS V14.01,2013-03-10 23:48:00,
2013-03-10 19:53:00,54.7,42.0,29.80,ESE,113,1.0,7.0,62,0.00,,---,0.00,VWS V14.01,2013-03-10 23:53:00,
2013-03-10 19:58:00,54.5,41.8,29.80,ESE,107,2.0,7.0,62,0.00,,---,0.00,VWS V14.01,2013-03-10 23:58:00,
2013-03-10 20:00:00,54.5,41.8,29.80,SE,124,2.0,7.0,62,0.00,,---,0.00,VWS V14.01,2013-03-11 00:00:00,
2013-03-10 20:03:00,54.5,41.8,29.80,SE,125,1.0,4.0,62,0.00,,---,0.00,VWS V14.01,2013-03-11 00:03:00,
2013-03-10 20:08:00,54.4,42.1,29.80,SE,129,3.0,5.0,63,0.00,,---,0.00,VWS V14.01,2013-03-11 00:08:00,
2013-03-10 20:13:00,54.5,42.2,29.80,SE,136,2.0,6.0,63,0.00,,---,0.00,VWS V14.01,2013-03-11 00:13:00,
2013-03-10 20:18:00,54.4,41.7,29.81,SSE,157,4.0,6.0,62,0.00,,---,0.00,VWS V14.01,2013-03-11 00:18:00,
2013-03-10 20:23:00,54.6,42.3,29.80,East,88,2.0,6.0,63,0.00,,---,0.00,VWS V14.01,2013-03-11 00:23:00,
2013-03-10 20:28:00,54.1,42.2,29.79,ESE,122,3.0,6.0,64,0.00,,---,0.00,VWS V14.01,2013-03-11 00:28:00,
2013-03-10 20:30:00,54.1,42.2,29.79,ESE,109,5.0,6.0,64,0.00,,---,0.00,VWS V14.01,2013-03-11 00:30:00,
2013-03-10 20:33:00,54.1,42.2,29.79,SE,125,7.0,7.0,64,0.00,,---,0.00,VWS V14.01,2013-03-11 00:33:00,
2013-03-10 20:38:00,54.2,41.9,29.78,ESE,115,0.0,7.0,63,0.00,,---,0.00,VWS V14.01,2013-03-11 00:38:00,
2013-03-10 20:43:00,54.3,41.6,29.79,SE,139,3.0,8.0,62,0.00,,---,0.00,VWS V14.01,2013-03-11 00:43:00,
2013-03-10 20:48:00,54.4,41.2,29.79,ESE,110,2.0,8.0,61,0.00,,---,0.00,VWS V14.01,2013-03-11 00:48:00,
2013-03-10 20:53:00,54.4,41.2,29.79,SE,142,1.0,8.0,61,0.00,,---,0.00,VWS V14.01,2013-03-11 00:53:00,
2013-03-10 20:58:00,54.3,41.2,29.79,ESE,117,2.0,8.0,61,0.00,,---,0.00,VWS V14.01,2013-03-11 00:58:00,
2013-03-10 21:00:00,54.3,41.2,29.79,SE,133,6.0,8.0,61,0.00,,---,0.00,VWS V14.01,2013-03-11 01:00:00,
2013-03-10 21:03:00,54.3,41.2,29.78,SE,131,1.0,6.0,61,0.00,,---,0.00,VWS V14.01,2013-03-11 01:03:00,
2013-03-10 21:08:00,54.3,41.2,29.78,ESE,117,1.0,8.0,61,0.00,,---,0.00,VWS V14.01,2013-03-11 01:08:00,
2013-03-10 21:13:00,54.2,41.1,29.77,SSE,158,0.0,8.0,61,0.00,,---,0.00,VWS V14.01,2013-03-11 01:13:00,
2013-03-10 21:18:00,54.3,40.7,29.78,SE,142,2.0,8.0,60,0.00,,---,0.00,VWS V14.01,2013-03-11 01:18:00,
2013-03-10 21:23:00,54.5,40.9,29.78,SE,143,4.0,8.0,60,0.00,,---,0.00,VWS V14.01,2013-03-11 01:23:00,
2013-03-10 21:28:00,54.4,40.4,29.77,SE,136,2.0,8.0,59,0.00,,---,0.00,VWS V14.01,2013-03-11 01:28:00,
2013-03-10 21:30:00,54.4,40.8,29.77,SE,129,0.0,8.0,60,0.00,,---,0.00,VWS V14.01,2013-03-11 01:30:00,
2013-03-10 21:33:00,54.3,40.7,29.77,ESE,115,4.0,6.0,60,0.00,,---,0.00,VWS V14.01,2013-03-11 01:33:00,
2013-03-10 21:38:00,54.3,40.3,29.77,SE,129,1.0,6.0,59,0.00,,---,0.00,VWS V14.01,2013-03-11 01:38:00,
2013-03-10 21:43:00,54.1,40.5,29.77,ESE,111,1.0,6.0,60,0.00,,---,0.00,VWS V14.01,2013-03-11 01:43:00,
2013-03-10 21:48:00,54.1,40.5,29.77,ESE,123,3.0,7.0,60,0.00,,---,0.00,VWS V14.01,2013-03-11 01:48:00,
2013-03-10 21:53:00,54.0,40.4,29.77,SE,134,2.0,7.0,60,0.00,,---,0.00,VWS V14.01,2013-03-11 01:53:00,
2013-03-10 21:58:00,53.9,40.3,29.78,ESE,117,1.0,7.0,60,0.00,,---,0.00,VWS V14.01,2013-03-11 01:58:00,
2013-03-10 22:00:00,53.9,40.3,29.78,SE,138,1.0,7.0,60,0.00,,---,0.00,VWS V14.01,2013-03-11 02:00:00,
2013-03-10 22:03:00,54.0,40.4,29.78,ESE,119,1.0,4.0,60,0.00,,---,0.00,VWS V14.01,2013-03-11 02:03:00,
2013-03-10 22:09:00,53.8,41.1,29.79,SE,142,1.0,4.0,62,0.00,,---,0.00,VWS V14.01,2013-03-11 02:09:00,
2013-03-10 22:14:00,53.5,41.6,29.79,SE,138,1.0,4.0,64,0.00,,---,0.00,VWS V14.01,2013-03-11 02:14:00,
2013-03-10 22:19:00,52.7,42.8,29.79,SSE,164,1.0,4.0,69,0.01,,---,0.01,VWS V14.01,2013-03-11 02:19:00,
2013-03-10 22:24:00,52.0,42.5,29.78,East,99,3.0,5.0,70,0.01,,---,0.01,VWS V14.01,2013-03-11 02:24:00,
2013-03-10 22:29:00,52.6,42.7,29.77,SE,139,1.0,8.0,69,0.01,,---,0.01,VWS V14.01,2013-03-11 02:29:00,
2013-03-10 22:30:00,52.5,42.6,29.77,SE,141,3.0,8.0,69,0.01,,---,0.01,VWS V14.01,2013-03-11 02:30:00,
2013-03-10 22:34:00,52.5,42.3,29.77,SE,134,1.0,8.0,68,0.02,,---,0.02,VWS V14.01,2013-03-11 02:34:00,
2013-03-10 22:39:00,52.7,42.5,29.77,SE,129,1.0,8.0,68,0.02,,---,0.02,VWS V14.01,2013-03-11 02:39:00,
2013-03-10 22:44:00,53.3,41.5,29.76,SSE,148,8.0,10.0,64,0.02,,---,0.02,VWS V14.01,2013-03-11 02:44:00,
2013-03-10 22:49:00,54.5,41.3,29.76,SE,124,5.0,11.0,61,0.02,,---,0.02,VWS V14.01,2013-03-11 02:49:00,
2013-03-10 22:54:00,55.5,41.4,29.76,SE,146,11.0,14.0,59,0.02,,---,0.02,VWS V14.01,2013-03-11 02:54:00,
2013-03-10 22:59:00,56.2,40.7,29.76,SW,235,10.0,14.0,56,0.02,,---,0.02,VWS V14.01,2013-03-11 02:59:00,
2013-03-10 23:00:00,56.5,41.0,29.76,SSW,194,8.0,15.0,56,0.02,,---,0.02,VWS V14.01,2013-03-11 03:00:00,
2013-03-10 23:04:00,56.7,41.2,29.76,SE,143,8.0,11.0,56,0.02,,---,0.02,VWS V14.01,2013-03-11 03:04:00,
2013-03-10 23:09:00,56.8,40.8,29.76,South,179,2.0,11.0,55,0.02,,---,0.02,VWS V14.01,2013-03-11 03:09:00,
2013-03-10 23:14:00,57.0,40.5,29.75,SW,235,5.0,13.0,54,0.02,,---,0.02,VWS V14.01,2013-03-11 03:14:00,
2013-03-10 23:19:00,57.1,40.2,29.75,SSW,210,5.0,18.0,53,0.02,,---,0.02,VWS V14.01,2013-03-11 03:19:00,
2013-03-10 23:24:00,57.2,40.2,29.75,East,86,5.0,18.0,53,0.02,,---,0.02,VWS V14.01,2013-03-11 03:24:00,
2013-03-10 23:29:00,57.0,40.1,29.75,SE,125,3.0,18.0,53,0.02,,---,0.02,VWS V14.01,2013-03-11 03:29:00,
2013-03-10 23:30:00,57.0,39.6,29.75,SSW,210,5.0,18.0,52,0.02,,---,0.02,VWS V14.01,2013-03-11 03:30:00,
2013-03-10 23:34:00,56.9,40.4,29.75,South,180,5.0,9.0,54,0.01,,---,0.02,VWS V14.01,2013-03-11 03:34:00,
2013-03-10 23:39:00,56.8,39.9,29.75,ESE,104,8.0,11.0,53,0.01,,---,0.02,VWS V14.01,2013-03-11 03:39:00,
2013-03-10 23:44:00,56.8,39.9,29.75,ESE,115,13.0,13.0,53,0.01,,---,0.02,VWS V14.01,2013-03-11 03:44:00,
2013-03-10 23:49:00,56.7,40.3,29.75,SSE,147,11.0,13.0,54,0.01,,---,0.02,VWS V14.01,2013-03-11 03:49:00,
2013-03-10 23:54:00,56.6,40.2,29.76,SSW,197,4.0,14.0,54,0.01,,---,0.02,VWS V14.01,2013-03-11 03:54:00,
2013-03-10 23:59:00,56.6,40.2,29.75,SE,131,2.0,14.0,54,0.01,,---,0.02,VWS V14.01,2013-03-11 03:59:00,